createdAt,value
2019-04-26T00:00:47.277Z,6.30
2019-04-26T00:03:20.619Z,6.30
2019-04-26T00:05:49.315Z,6.30
2019-04-26T00:08:18.021Z,6.20
2019-04-26T00:11:06.163Z,6.20
2019-04-26T00:13:39.438Z,6.10
2019-04-26T00:16:10.139Z,6.10
2019-04-26T00:18:39.546Z,6.10
2019-04-26T00:21:08.272Z,6.00
2019-04-26T00:23:36.975Z,6.00
2019-04-26T00:26:06.022Z,5.90
2019-04-26T00:28:34.755Z,5.90
2019-04-26T00:31:03.518Z,5.80
2019-04-26T00:33:32.211Z,5.80
2019-04-26T00:36:00.856Z,5.90
2019-04-26T00:38:29.551Z,5.80
2019-04-26T00:40:59.331Z,5.80
2019-04-26T00:43:28.527Z,5.80
2019-04-26T00:45:58.629Z,5.80
2019-04-26T00:48:29.237Z,5.80
2019-04-26T00:50:58.431Z,5.70
2019-04-26T00:53:29.331Z,5.70
2019-04-26T00:55:59.023Z,5.60
2019-04-26T00:58:29.029Z,5.60
2019-04-26T01:00:57.799Z,5.60
2019-04-26T01:03:26.503Z,5.50
2019-04-26T01:06:00.193Z,5.50
2019-04-26T01:08:27.882Z,5.40
2019-04-26T01:10:56.581Z,5.40
2019-04-26T01:13:26.116Z,5.30
2019-04-26T01:15:54.947Z,5.30
2019-04-26T01:18:24.441Z,5.20
2019-04-26T01:20:56.155Z,5.10
2019-04-26T01:23:28.459Z,5.00
2019-04-26T01:26:03.127Z,4.90
2019-04-26T01:28:54.799Z,4.90
2019-04-26T01:31:25.963Z,4.80
2019-04-26T01:33:54.709Z,4.70
2019-04-26T01:36:26.466Z,4.60
2019-04-26T01:38:58.132Z,4.60
2019-04-26T01:41:37.106Z,4.60
2019-04-26T01:44:07.843Z,4.60
2019-04-26T01:46:46.372Z,4.60
2019-04-26T01:49:18.007Z,4.60
2019-04-26T01:51:49.656Z,4.60
2019-04-26T01:54:22.578Z,4.60
2019-04-26T01:56:54.827Z,4.60
2019-04-26T01:59:25.265Z,4.60
2019-04-26T02:01:55.731Z,4.60
2019-04-26T02:04:27.754Z,4.60
2019-04-26T02:06:56.614Z,4.60
2019-04-26T02:09:26.342Z,4.60
2019-04-26T02:11:55.107Z,4.60
2019-04-26T02:14:25.211Z,4.50
2019-04-26T02:16:54.195Z,4.50
2019-04-26T02:19:24.306Z,4.40
2019-04-26T02:21:58.151Z,4.40
2019-04-26T02:24:30.109Z,4.40
2019-04-26T02:27:01.559Z,4.40
2019-04-26T02:29:30.432Z,4.30
2019-04-26T02:32:02.488Z,4.30
2019-04-26T02:34:35.264Z,4.30
2019-04-26T02:37:07.331Z,4.30
2019-04-26T02:39:39.701Z,4.30
2019-04-26T02:42:11.553Z,4.30
2019-04-26T02:44:50.326Z,4.30
2019-04-26T02:47:39.711Z,4.30
2019-04-26T02:50:16.029Z,4.30
2019-04-26T02:53:02.799Z,4.30
2019-04-26T02:55:42.437Z,4.20
2019-04-26T02:58:11.719Z,4.20
2019-04-26T03:00:41.022Z,4.20
2019-04-26T03:03:10.915Z,4.20
2019-04-26T03:05:42.243Z,4.20
2019-04-26T03:08:13.868Z,4.20
2019-04-26T03:10:45.252Z,4.10
2019-04-26T03:13:19.112Z,4.10
2019-04-26T03:16:01.449Z,4.10
2019-04-26T03:18:41.541Z,4.10
2019-04-26T03:21:32.685Z,4.00
2019-04-26T03:24:25.640Z,4.10
2019-04-26T03:27:13.980Z,4.20
2019-04-26T03:30:19.234Z,4.30
2019-04-26T03:32:50.777Z,4.40
2019-04-26T03:35:34.666Z,4.50
2019-04-26T03:38:36.193Z,4.60
2019-04-26T03:41:24.851Z,4.80
2019-04-26T03:44:05.322Z,4.90
2019-04-26T03:46:41.182Z,4.90
2019-04-26T03:49:38.054Z,5.00
2019-04-26T03:52:28.752Z,5.00
2019-04-26T03:55:00.384Z,5.20
2019-04-26T03:57:38.335Z,5.30
2019-04-26T04:00:16.866Z,5.40
2019-04-26T04:03:05.029Z,5.50
2019-04-26T04:05:53.505Z,5.60
2019-04-26T04:08:25.159Z,5.70
2019-04-26T04:10:56.884Z,5.90
2019-04-26T04:13:40.715Z,5.90
2019-04-26T04:16:17.792Z,6.10
2019-04-26T04:18:49.535Z,6.20
2019-04-26T04:21:34.400Z,6.40
2019-04-26T04:24:08.968Z,6.50
2019-04-26T04:26:58.478Z,6.60
2019-04-26T04:29:55.266Z,6.70
2019-04-26T04:32:53.388Z,6.80
2019-04-26T04:35:24.707Z,6.90
2019-04-26T04:38:09.467Z,7.00
2019-04-26T04:41:01.980Z,7.10
2019-04-26T04:43:35.296Z,7.20
2019-04-26T04:46:32.333Z,7.30
2019-04-26T04:52:27.921Z,7.40
2019-04-26T04:55:17.707Z,7.60
2019-04-26T04:57:50.266Z,7.80
2019-04-26T05:00:29.512Z,7.90
2019-04-26T05:03:26.747Z,8.10
2019-04-26T05:06:20.396Z,8.20
2019-04-26T05:09:10.079Z,8.40
2019-04-26T05:12:05.731Z,8.70
2019-04-26T05:15:00.681Z,10.20
2019-04-26T05:17:56.687Z,12.60
2019-04-26T05:20:31.111Z,13.80
2019-04-26T05:23:35.084Z,14.60
2019-04-26T05:26:29.216Z,15.40
2019-04-26T05:29:17.907Z,16.30
2019-04-26T05:32:07.868Z,17.20
2019-04-26T05:34:56.882Z,17.30
2019-04-26T05:38:02.412Z,16.90
2019-04-26T05:41:03.145Z,16.80
2019-04-26T05:43:51.844Z,17.80
2019-04-26T05:46:52.107Z,19.20
2019-04-26T05:49:47.787Z,20.20
2019-04-26T05:52:55.195Z,20.40
2019-04-26T05:55:58.076Z,20.50
2019-04-26T05:58:48.183Z,20.30
2019-04-26T06:01:27.204Z,21.00
2019-04-26T06:04:28.957Z,21.60
2019-04-26T06:07:08.183Z,22.10
2019-04-26T06:09:47.240Z,22.90
2019-04-26T06:12:32.408Z,22.80
2019-04-26T06:15:33.071Z,22.70
2019-04-26T06:18:15.303Z,22.30
2019-04-26T06:21:05.179Z,22.20
2019-04-26T06:23:57.925Z,21.90
2019-04-26T06:29:45.955Z,23.10
2019-04-26T06:32:20.488Z,23.50
2019-04-26T06:34:59.871Z,23.90
2019-04-26T06:37:55.700Z,24.20
2019-04-26T06:40:43.775Z,24.10
2019-04-26T06:43:19.751Z,23.80
2019-04-26T06:46:11.623Z,24.70
2019-04-26T06:49:03.419Z,24.30
2019-04-26T06:52:05.173Z,24.70
2019-04-26T06:54:36.800Z,24.40
2019-04-26T06:57:24.655Z,24.50
2019-04-26T07:00:14.603Z,24.40
2019-04-26T07:02:58.934Z,23.90
2019-04-26T07:05:39.834Z,24.80
2019-04-26T07:08:26.860Z,25.90
2019-04-26T07:11:16.640Z,26.30
2019-04-26T07:14:07.600Z,28.10
2019-04-26T07:16:55.851Z,28.30
2019-04-26T07:20:03.111Z,27.90
2019-04-26T07:23:02.049Z,27.80
2019-04-26T07:26:07.976Z,29.20
2019-04-26T07:29:06.943Z,29.20
2019-04-26T07:31:50.879Z,29.40
2019-04-26T07:34:26.837Z,29.20
2019-04-26T07:37:32.019Z,28.10
2019-04-26T07:40:11.776Z,28.80
2019-04-26T07:43:30.307Z,29.30
2019-04-26T07:46:27.511Z,28.70
2019-04-26T07:49:32.573Z,28.90
2019-04-26T07:52:23.729Z,29.30
2019-04-26T07:55:28.953Z,29.00
2019-04-26T07:58:19.854Z,29.30
2019-04-26T08:00:55.689Z,31.00
2019-04-26T08:03:37.599Z,31.60
2019-04-26T08:06:11.999Z,31.60
2019-04-26T08:09:01.931Z,31.30
2019-04-26T08:11:42.544Z,29.70
2019-04-26T08:14:20.059Z,30.50
2019-04-26T08:17:10.407Z,30.80
2019-04-26T08:20:10.701Z,30.30
2019-04-26T08:22:41.119Z,28.90
2019-04-26T08:25:12.459Z,29.40
2019-04-26T08:27:42.803Z,28.60
2019-04-26T08:30:19.120Z,27.50
2019-04-26T08:32:52.917Z,28.60
2019-04-26T08:35:25.574Z,28.50
2019-04-26T08:37:58.183Z,28.90
2019-04-26T08:40:31.031Z,29.70
2019-04-26T08:43:10.876Z,28.70
2019-04-26T08:46:03.129Z,28.00
2019-04-26T08:48:49.281Z,29.40
2019-04-26T08:51:21.844Z,30.40
2019-04-26T08:53:53.686Z,30.20
2019-04-26T08:56:34.419Z,28.70
2019-04-26T08:59:06.732Z,29.50
2019-04-26T09:01:45.540Z,30.10
2019-04-26T09:04:16.662Z,29.70
2019-04-26T09:07:01.905Z,31.30
2019-04-26T09:09:33.543Z,31.70
2019-04-26T09:12:08.404Z,30.70
2019-04-26T09:14:37.407Z,30.10
2019-04-26T09:17:07.091Z,30.80
2019-04-26T09:19:35.795Z,30.50
2019-04-26T09:22:13.357Z,29.10
2019-04-26T09:24:41.123Z,29.40
2019-04-26T09:27:11.495Z,29.20
2019-04-26T09:29:44.804Z,29.20
2019-04-26T09:32:18.161Z,29.40
2019-04-26T09:34:47.415Z,28.10
2019-04-26T09:37:16.383Z,28.70
2019-04-26T09:39:45.100Z,29.50
2019-04-26T09:42:24.408Z,28.70
2019-04-26T09:44:57.519Z,29.50
2019-04-26T09:47:36.851Z,29.50
2019-04-26T09:50:17.102Z,28.70
2019-04-26T09:52:47.619Z,28.50
2019-04-26T09:55:16.259Z,28.20
2019-04-26T09:57:44.961Z,28.90
2019-04-26T10:00:17.315Z,28.40
2019-04-26T10:02:46.094Z,28.60
2019-04-26T10:05:17.581Z,28.30
2019-04-26T10:07:45.256Z,28.70
2019-04-26T10:10:35.206Z,28.20
2019-04-26T10:13:08.388Z,26.70
2019-04-26T10:15:58.265Z,27.20
2019-04-26T10:18:26.008Z,26.80
2019-04-26T10:20:54.802Z,27.40
2019-04-26T10:23:23.513Z,27.60
2019-04-26T10:25:53.570Z,27.40
2019-04-26T10:28:22.334Z,27.60
2019-04-26T10:30:51.303Z,27.90
2019-04-26T10:33:20.019Z,27.40
2019-04-26T10:35:48.719Z,27.10
2019-04-26T10:38:19.331Z,26.90
2019-04-26T10:40:47.771Z,27.60
2019-04-26T10:43:17.411Z,27.60
2019-04-26T10:45:53.577Z,27.30
2019-04-26T10:48:16.678Z,27.30
2019-04-26T10:50:45.386Z,28.00
2019-04-26T10:53:21.537Z,28.00
2019-04-26T10:55:51.880Z,27.80
2019-04-26T10:58:31.921Z,26.80
2019-04-26T11:01:03.484Z,27.30
2019-04-26T11:03:34.889Z,27.60
2019-04-26T11:06:02.620Z,28.20
2019-04-26T11:08:31.320Z,28.00
2019-04-26T11:11:00.035Z,28.10
2019-04-26T11:13:28.731Z,28.30
2019-04-26T11:15:57.444Z,28.30
2019-04-26T11:18:27.730Z,28.30
2019-04-26T11:20:56.560Z,27.90
2019-04-26T11:23:25.253Z,28.30
2019-04-26T11:25:53.953Z,28.10
2019-04-26T11:28:22.957Z,27.90
2019-04-26T11:30:52.308Z,27.00
2019-04-26T11:33:22.135Z,26.60
2019-04-26T11:35:50.847Z,27.10
2019-04-26T11:38:21.718Z,27.70
2019-04-26T11:41:05.027Z,28.00
2019-04-26T11:43:21.100Z,26.80
2019-04-26T11:45:50.493Z,27.70
2019-04-26T11:48:19.391Z,27.30
2019-04-26T11:50:48.317Z,27.40
2019-04-26T11:53:18.458Z,27.50
2019-04-26T11:55:47.163Z,27.30
2019-04-26T11:58:17.926Z,26.10
2019-04-26T12:00:53.668Z,26.10
2019-04-26T12:03:24.875Z,26.20
2019-04-26T12:05:57.332Z,25.10
2019-04-26T12:08:43.647Z,25.40
2019-04-26T12:11:18.651Z,25.10
2019-04-26T12:13:42.976Z,25.10
2019-04-26T12:16:14.593Z,25.10
2019-04-26T12:18:44.243Z,25.90
2019-04-26T12:21:12.389Z,26.90
2019-04-26T12:23:41.104Z,27.40
2019-04-26T12:26:09.872Z,27.60
2019-04-26T12:28:40.026Z,27.40
2019-04-26T12:31:08.945Z,26.70
2019-04-26T12:33:39.108Z,26.50
2019-04-26T12:36:09.510Z,25.90
2019-04-26T12:38:38.844Z,26.40
2019-04-26T12:41:07.562Z,27.50
2019-04-26T12:43:36.269Z,27.80
2019-04-26T12:46:15.521Z,26.90
2019-04-26T12:48:45.966Z,26.30
2019-04-26T12:51:15.240Z,25.90
2019-04-26T12:53:43.956Z,25.50
2019-04-26T12:56:12.651Z,26.40
2019-04-26T12:58:41.347Z,26.80
2019-04-26T13:01:12.252Z,26.90
2019-04-26T13:03:44.544Z,26.60
2019-04-26T13:06:13.331Z,26.10
2019-04-26T13:08:42.100Z,26.30
2019-04-26T13:11:16.186Z,25.60
2019-04-26T13:13:46.560Z,26.40
2019-04-26T13:16:21.511Z,26.10
2019-04-26T13:18:50.596Z,27.00
2019-04-26T13:21:19.292Z,26.90
2019-04-26T13:23:48.250Z,26.60
2019-04-26T13:26:17.098Z,26.70
2019-04-26T13:28:45.811Z,26.50
2019-04-26T13:31:14.512Z,26.60
2019-04-26T13:33:43.220Z,26.60
2019-04-26T13:36:11.915Z,26.80
2019-04-26T13:38:43.629Z,26.30
2019-04-26T13:41:11.028Z,25.60
2019-04-26T13:43:39.724Z,26.10
2019-04-26T13:46:21.993Z,25.70
2019-04-26T13:48:52.343Z,25.50
2019-04-26T13:51:22.683Z,25.50
2019-04-26T13:53:54.192Z,25.10
2019-04-26T13:56:21.745Z,25.20
2019-04-26T13:59:09.784Z,25.20
2019-04-26T14:01:38.492Z,24.80
2019-04-26T14:04:08.918Z,25.00
2019-04-26T14:06:40.640Z,25.40
2019-04-26T14:09:10.535Z,25.30
2019-04-26T14:11:39.237Z,25.20
2019-04-26T14:14:08.011Z,25.00
2019-04-26T14:16:36.711Z,25.10
2019-04-26T14:19:05.688Z,25.10
2019-04-26T14:21:34.843Z,25.00
2019-04-26T14:24:19.743Z,25.20
2019-04-26T14:26:52.659Z,24.80
2019-04-26T14:29:21.427Z,24.40
2019-04-26T14:31:51.376Z,24.20
2019-04-26T14:34:20.478Z,24.30
2019-04-26T14:36:49.188Z,24.40
2019-04-26T14:39:20.919Z,24.10
2019-04-26T14:41:48.453Z,24.10
2019-04-26T14:44:17.321Z,23.90
2019-04-26T14:46:49.012Z,23.60
2019-04-26T14:49:19.255Z,23.60
2019-04-26T14:51:51.198Z,23.60
2019-04-26T14:54:17.973Z,23.40
2019-04-26T14:56:52.414Z,23.20
2019-04-26T14:59:18.659Z,23.00
2019-04-26T15:01:54.911Z,22.90
2019-04-26T15:04:37.305Z,22.70
2019-04-26T15:07:06.715Z,22.50
2019-04-26T15:09:36.574Z,22.50
2019-04-26T15:12:07.638Z,22.30
2019-04-26T15:14:35.835Z,22.10
2019-04-26T15:17:04.576Z,22.00
2019-04-26T15:19:35.108Z,21.90
2019-04-26T15:22:10.097Z,21.90
2019-04-26T15:24:35.155Z,21.70
2019-04-26T15:27:04.335Z,21.80
2019-04-26T15:29:33.435Z,21.90
2019-04-26T15:32:04.840Z,21.80
2019-04-26T15:34:32.493Z,21.80
2019-04-26T15:37:02.868Z,21.80
2019-04-26T15:39:50.291Z,21.60
2019-04-26T15:42:23.771Z,21.30
2019-04-26T15:45:01.800Z,21.20
2019-04-26T15:47:32.047Z,21.20
2019-04-26T15:50:03.916Z,21.00
2019-04-26T15:52:33.991Z,20.90
2019-04-26T15:55:05.777Z,20.90
2019-04-26T15:57:34.681Z,20.90
2019-04-26T16:00:04.913Z,21.10
2019-04-26T16:02:33.623Z,21.10
2019-04-26T16:05:02.686Z,21.20
2019-04-26T16:07:34.226Z,21.10
2019-04-26T16:10:01.794Z,20.80
2019-04-26T16:12:32.031Z,20.60
2019-04-26T16:15:02.377Z,20.60
2019-04-26T16:17:31.200Z,20.50
2019-04-26T16:20:01.619Z,20.20
2019-04-26T16:22:31.653Z,20.10
2019-04-26T16:25:04.009Z,19.90
2019-04-26T16:27:34.147Z,19.80
2019-04-26T16:30:19.967Z,19.70
2019-04-26T16:32:52.617Z,19.70
2019-04-26T16:35:25.378Z,19.80
2019-04-26T16:37:52.095Z,19.70
2019-04-26T16:40:21.105Z,19.70
2019-04-26T16:42:56.991Z,19.50
2019-04-26T16:45:20.155Z,19.40
2019-04-26T16:47:48.974Z,19.50
2019-04-26T16:50:23.993Z,19.30
2019-04-26T16:52:48.192Z,19.10
2019-04-26T16:55:20.807Z,19.00
2019-04-26T16:57:54.989Z,19.00
2019-04-26T17:00:17.607Z,18.70
2019-04-26T17:02:46.294Z,18.60
2019-04-26T17:05:23.724Z,18.50
2019-04-26T17:07:45.949Z,18.60
2019-04-26T17:10:16.511Z,18.40
2019-04-26T17:12:46.219Z,18.30
2019-04-26T17:15:17.459Z,18.20
2019-04-26T17:17:50.182Z,18.10
2019-04-26T17:20:17.087Z,18.10
2019-04-26T17:23:05.652Z,18.00
2019-04-26T17:25:35.991Z,18.00
2019-04-26T17:28:04.694Z,18.00
2019-04-26T17:30:40.827Z,17.70
2019-04-26T17:33:03.818Z,17.60
2019-04-26T17:35:32.825Z,17.50
2019-04-26T17:38:05.096Z,17.40
2019-04-26T17:40:36.700Z,17.20
2019-04-26T17:43:05.417Z,17.20
2019-04-26T17:45:36.328Z,17.00
2019-04-26T17:48:06.501Z,16.90
2019-04-26T17:50:35.401Z,16.80
2019-04-26T17:53:06.533Z,16.70
2019-04-26T17:55:35.520Z,16.60
2019-04-26T17:58:12.462Z,16.50
2019-04-26T18:00:45.715Z,16.40
2019-04-26T18:03:13.214Z,16.30
2019-04-26T18:05:55.826Z,16.20
2019-04-26T18:08:32.795Z,16.10
2019-04-26T18:10:42.568Z,16.00
2019-04-26T18:13:16.388Z,15.90
2019-04-26T18:15:46.947Z,15.90
2019-04-26T18:18:14.368Z,15.70
2019-04-26T18:21:00.805Z,15.50
2019-04-26T18:23:30.563Z,15.40
2019-04-26T18:25:59.391Z,15.30
2019-04-26T18:28:28.091Z,15.20
2019-04-26T18:30:56.953Z,15.00
2019-04-26T18:33:26.118Z,14.90
2019-04-26T18:35:57.424Z,14.90
2019-04-26T18:38:25.263Z,14.70
2019-04-26T18:41:00.796Z,14.60
2019-04-26T18:43:24.535Z,14.50
2019-04-26T18:45:58.649Z,14.30
2019-04-26T18:48:25.241Z,14.20
2019-04-26T18:50:55.376Z,14.20
2019-04-26T18:53:30.544Z,14.20
2019-04-26T18:55:59.326Z,14.10
2019-04-26T18:58:30.305Z,13.90
2019-04-26T19:01:01.749Z,13.80
2019-04-26T19:03:49.476Z,13.80
2019-04-26T19:06:27.411Z,13.70
2019-04-26T19:08:52.239Z,13.60
2019-04-26T19:11:18.995Z,13.60
2019-04-26T19:14:06.383Z,13.50
2019-04-26T19:16:46.415Z,13.40
2019-04-26T19:19:24.250Z,13.20
2019-04-26T19:22:03.296Z,13.20
2019-04-26T19:24:31.424Z,13.20
2019-04-26T19:27:01.742Z,13.10
2019-04-26T19:29:34.316Z,13.00
2019-04-26T19:32:04.105Z,13.00
2019-04-26T19:34:31.333Z,12.90
2019-04-26T19:37:01.482Z,12.90
2019-04-26T19:39:33.308Z,12.70
2019-04-26T19:42:02.439Z,12.60
2019-04-26T19:44:31.678Z,12.60
2019-04-26T19:47:20.351Z,12.60
2019-04-26T19:50:09.413Z,12.50
2019-04-26T19:52:42.921Z,12.40
2019-04-26T19:55:16.076Z,12.40
2019-04-26T19:58:04.815Z,12.40
2019-04-26T20:00:33.583Z,12.30
2019-04-26T20:03:02.307Z,12.20
2019-04-26T20:05:31.997Z,12.10
2019-04-26T20:08:02.981Z,11.90
2019-04-26T20:10:34.579Z,11.80
2019-04-26T20:13:02.596Z,11.70
2019-04-26T20:15:31.887Z,11.70
2019-04-26T20:18:03.745Z,11.60
2019-04-26T20:20:34.581Z,11.50
2019-04-26T20:23:05.887Z,11.50
2019-04-26T20:25:31.695Z,11.40
2019-04-26T20:28:02.583Z,11.30
2019-04-26T20:30:44.224Z,11.30
2019-04-26T20:33:12.936Z,11.20
2019-04-26T20:35:42.404Z,11.20
2019-04-26T20:38:11.881Z,11.10
2019-04-26T20:40:43.521Z,11.10
2019-04-26T20:43:23.834Z,11.00
2019-04-26T20:45:42.673Z,10.90
2019-04-26T20:48:11.793Z,10.90
2019-04-26T20:50:41.326Z,10.90
2019-04-26T20:53:11.828Z,10.80
2019-04-26T20:55:40.379Z,10.80
2019-04-26T20:58:09.176Z,10.90
2019-04-26T21:00:37.972Z,10.80
2019-04-26T21:03:19.946Z,10.80
2019-04-26T21:05:45.713Z,10.70
2019-04-26T21:08:07.562Z,10.70
2019-04-26T21:10:36.266Z,10.70
2019-04-26T21:13:05.333Z,10.70
2019-04-26T21:15:35.941Z,10.60
2019-04-26T21:18:04.454Z,10.50
2019-04-26T21:20:36.398Z,10.50
2019-04-26T21:23:05.319Z,10.50
2019-04-26T21:25:52.446Z,10.40
2019-04-26T21:28:38.107Z,10.30
2019-04-26T21:31:07.479Z,10.30
2019-04-26T21:33:44.775Z,10.20
2019-04-26T21:36:40.388Z,10.10
2019-04-26T21:39:24.277Z,10.10
2019-04-26T21:41:54.628Z,10.00
2019-04-26T21:44:23.394Z,9.90
2019-04-26T21:46:56.177Z,9.80
2019-04-26T21:49:24.399Z,9.70
2019-04-26T21:51:56.223Z,9.60
2019-04-26T21:54:25.217Z,9.50
2019-04-26T21:56:56.793Z,9.50
2019-04-26T21:59:25.491Z,9.30
2019-04-26T22:01:58.963Z,9.20
2019-04-26T22:04:28.783Z,9.10
2019-04-26T22:06:55.658Z,9.10
2019-04-26T22:09:33.307Z,8.90
2019-04-26T22:11:59.454Z,8.90
2019-04-26T22:14:35.791Z,8.70
2019-04-26T22:17:24.185Z,8.70
2019-04-26T22:20:14.432Z,8.70
2019-04-26T22:22:44.306Z,8.70
2019-04-26T22:25:13.879Z,8.80
2019-04-26T22:27:43.709Z,8.70
2019-04-26T22:30:14.735Z,8.70
2019-04-26T22:32:43.426Z,8.70
2019-04-26T22:35:13.483Z,8.70
2019-04-26T22:37:45.540Z,8.60
2019-04-26T22:40:17.020Z,8.60
2019-04-26T22:42:44.989Z,8.60
2019-04-26T22:45:15.631Z,8.60
2019-04-26T22:47:58.025Z,8.50
2019-04-26T22:50:26.792Z,8.40
2019-04-26T22:52:55.495Z,8.40
2019-04-26T22:55:27.405Z,8.40
2019-04-26T22:57:54.651Z,8.40
2019-04-26T23:00:29.290Z,8.40
2019-04-26T23:02:58.223Z,8.40
2019-04-26T23:05:26.059Z,8.30
2019-04-26T23:07:58.896Z,8.30
2019-04-26T23:10:31.189Z,8.20
2019-04-26T23:13:17.919Z,8.10
2019-04-26T23:15:48.264Z,8.00
2019-04-26T23:18:38.721Z,7.80
2019-04-26T23:21:17.469Z,7.80
2019-04-26T23:23:46.162Z,7.80
2019-04-26T23:26:14.906Z,7.80
2019-04-26T23:28:43.599Z,7.70
2019-04-26T23:31:13.391Z,7.70
2019-04-26T23:33:42.948Z,7.70
2019-04-26T23:36:13.481Z,7.70
2019-04-26T23:38:43.507Z,7.70
2019-04-26T23:41:14.194Z,7.70
2019-04-26T23:43:43.023Z,7.70
2019-04-26T23:46:14.351Z,7.80
2019-04-26T23:48:42.693Z,7.70
2019-04-26T23:51:12.431Z,7.80
2019-04-26T23:53:42.804Z,7.80
2019-04-26T23:56:16.248Z,7.70
2019-04-26T23:58:44.162Z,7.70
